createdAt,value
2023-02-25T00:02:02.649Z,99294.40
2023-02-25T00:04:32.617Z,99293.95
2023-02-25T00:07:01.869Z,99292.48
2023-02-25T00:09:30.735Z,99287.42
2023-02-25T00:11:59.235Z,99277.78
2023-02-25T00:14:28.876Z,99271.62
2023-02-25T00:16:57.639Z,99262.63
2023-02-25T00:19:26.654Z,99265.94
2023-02-25T00:21:55.206Z,99259.00
2023-02-25T00:24:23.552Z,99252.97
2023-02-25T00:26:51.878Z,99250.86
2023-02-25T00:29:20.347Z,99252.13
2023-02-25T00:31:48.821Z,99247.70
2023-02-25T00:34:18.179Z,99241.34
2023-02-25T00:36:46.727Z,99233.34
2023-02-25T00:39:15.240Z,99227.02
2023-02-25T00:41:43.664Z,99227.52
2023-02-25T00:44:13.291Z,99223.13
2023-02-25T00:46:41.768Z,99222.35
2023-02-25T00:49:12.141Z,99216.76
2023-02-25T00:51:41.979Z,99213.00
2023-02-25T00:54:10.310Z,99210.04
2023-02-25T00:56:38.655Z,99209.80
2023-02-25T00:59:07.075Z,99211.85
2023-02-25T01:01:38.387Z,99215.43
2023-02-25T01:04:08.475Z,99213.68
2023-02-25T01:06:39.202Z,99218.27
2023-02-25T01:09:14.080Z,99220.27
2023-02-25T01:11:46.349Z,99214.48
2023-02-25T01:14:21.464Z,99212.02
2023-02-25T01:16:52.107Z,99210.13
2023-02-25T01:19:25.816Z,99210.46
2023-02-25T01:21:58.242Z,99211.75
2023-02-25T01:24:32.803Z,99212.12
2023-02-25T01:27:03.807Z,99211.98
2023-02-25T01:29:39.523Z,99211.86
2023-02-25T01:32:14.359Z,99204.70
2023-02-25T01:34:43.058Z,99204.36
2023-02-25T01:37:11.568Z,99201.42
2023-02-25T01:39:43.116Z,99201.63
2023-02-25T01:42:16.639Z,99196.95
2023-02-25T01:45:19.450Z,99189.15
2023-02-25T01:48:12.505Z,99183.44
2023-02-25T01:50:49.082Z,99178.30
2023-02-25T01:53:24.200Z,99174.84
2023-02-25T01:55:53.296Z,99170.82
2023-02-25T01:58:22.773Z,99164.42
2023-02-25T02:00:55.636Z,99161.08
2023-02-25T02:03:32.245Z,99152.45
2023-02-25T02:06:09.741Z,99154.49
2023-02-25T02:08:38.663Z,99165.50
2023-02-25T02:11:07.331Z,99160.48
2023-02-25T02:13:39.095Z,99152.21
2023-02-25T02:16:35.029Z,99150.55
2023-02-25T02:19:39.785Z,99144.86
2023-02-25T02:22:17.388Z,99136.62
2023-02-25T02:25:05.293Z,99131.05
2023-02-25T02:28:03.276Z,99136.75
2023-02-25T02:30:51.537Z,99136.02
2023-02-25T02:33:52.034Z,99135.44
2023-02-25T02:36:38.770Z,99130.73
2023-02-25T02:39:45.769Z,99127.45
2023-02-25T02:42:58.601Z,99123.10
2023-02-25T02:45:51.210Z,99125.73
2023-02-25T02:48:46.669Z,99131.73
2023-02-25T02:51:25.110Z,99135.56
2023-02-25T02:53:58.208Z,99123.90
2023-02-25T02:56:28.963Z,99119.20
2023-02-25T02:59:19.097Z,99115.15
2023-02-25T03:01:59.138Z,99116.84
2023-02-25T03:04:32.392Z,99118.27
2023-02-25T03:07:08.490Z,99110.90
2023-02-25T03:09:47.100Z,99107.21
2023-02-25T03:12:16.530Z,99099.66
2023-02-25T03:14:44.964Z,99099.53
2023-02-25T03:17:31.586Z,99100.52
2023-02-25T03:20:21.753Z,99093.36
2023-02-25T03:22:54.393Z,99085.49
2023-02-25T03:25:38.308Z,99086.66
2023-02-25T03:28:31.374Z,99083.58
2023-02-25T03:31:25.102Z,99081.39
2023-02-25T03:34:07.044Z,99074.99
2023-02-25T03:36:42.842Z,99073.06
2023-02-25T03:39:20.790Z,99074.33
2023-02-25T03:41:54.775Z,99076.39
2023-02-25T03:44:30.828Z,99067.82
2023-02-25T03:47:01.351Z,99056.50
2023-02-25T03:49:48.215Z,99055.98
2023-02-25T03:52:23.059Z,99062.45
2023-02-25T03:54:55.154Z,99063.30
2023-02-25T03:57:26.009Z,99062.31
2023-02-25T03:59:56.602Z,99053.44
2023-02-25T04:02:33.231Z,99053.79
2023-02-25T04:05:01.792Z,99050.64
2023-02-25T04:07:30.184Z,99038.21
2023-02-25T04:09:58.713Z,99034.04
2023-02-25T04:12:27.640Z,99025.20
2023-02-25T04:14:55.970Z,99022.91
2023-02-25T04:17:24.553Z,99019.89
2023-02-25T04:19:52.925Z,99023.15
2023-02-25T04:22:21.421Z,99014.67
2023-02-25T04:24:50.108Z,99013.46
2023-02-25T04:27:18.645Z,99011.59
2023-02-25T04:29:47.069Z,99007.82
2023-02-25T04:32:15.509Z,99002.70
2023-02-25T04:34:44.027Z,98996.04
2023-02-25T04:37:12.300Z,98993.59
2023-02-25T04:39:40.683Z,98991.64
2023-02-25T04:42:09.340Z,98989.67
2023-02-25T04:44:37.705Z,98988.84
2023-02-25T04:47:06.101Z,98990.01
2023-02-25T04:49:44.844Z,98992.41
2023-02-25T04:52:15.429Z,98991.35
2023-02-25T04:54:43.843Z,98981.91
2023-02-25T04:57:12.665Z,98966.77
2023-02-25T04:59:41.153Z,98953.64
2023-02-25T05:02:09.982Z,98956.55
2023-02-25T05:04:39.600Z,98948.40
2023-02-25T05:07:08.853Z,98945.19
2023-02-25T05:09:37.275Z,98934.52
2023-02-25T05:12:07.049Z,98926.21
2023-02-25T05:14:37.360Z,98918.59
2023-02-25T05:17:05.727Z,98918.70
2023-02-25T05:19:34.515Z,98925.45
2023-02-25T05:22:02.902Z,98927.55
2023-02-25T05:24:31.606Z,98927.45
2023-02-25T05:27:05.001Z,98934.51
2023-02-25T05:29:33.442Z,98934.40
2023-02-25T05:32:02.510Z,98931.45
2023-02-25T05:34:31.081Z,98925.72
2023-02-25T05:36:59.515Z,98924.83
2023-02-25T05:39:28.081Z,98920.72
2023-02-25T05:41:56.433Z,98916.34
2023-02-25T05:44:25.179Z,98913.98
2023-02-25T05:46:53.591Z,98914.70
2023-02-25T05:49:22.071Z,98911.13
2023-02-25T05:51:51.131Z,98906.45
2023-02-25T05:54:19.507Z,98904.45
2023-02-25T05:56:51.629Z,98904.54
2023-02-25T05:59:20.182Z,98906.36
2023-02-25T06:01:48.649Z,98907.80
2023-02-25T06:04:17.133Z,98907.69
2023-02-25T06:06:50.432Z,98905.48
2023-02-25T06:09:20.276Z,98904.27
2023-02-25T06:11:49.614Z,98903.42
2023-02-25T06:14:17.955Z,98897.09
2023-02-25T06:16:46.364Z,98902.14
2023-02-25T06:19:14.762Z,98899.77
2023-02-25T06:21:43.362Z,98888.52
2023-02-25T06:24:11.877Z,98889.65
2023-02-25T06:26:42.606Z,98899.08
2023-02-25T06:29:10.982Z,98897.34
2023-02-25T06:31:39.969Z,98892.73
2023-02-25T06:34:08.395Z,98893.34
2023-02-25T06:36:36.812Z,98885.86
2023-02-25T06:39:05.260Z,98883.36
2023-02-25T06:41:33.609Z,98877.09
2023-02-25T06:44:02.018Z,98875.17
2023-02-25T06:46:30.771Z,98876.02
2023-02-25T06:48:59.114Z,98874.17
2023-02-25T06:51:27.622Z,98863.09
2023-02-25T06:53:55.980Z,98857.05
2023-02-25T06:56:24.588Z,98857.23
2023-02-25T06:58:53.434Z,98857.30
2023-02-25T07:01:21.912Z,98852.47
2023-02-25T07:03:50.930Z,98853.75
2023-02-25T07:06:19.926Z,98856.10
2023-02-25T07:08:48.296Z,98849.13
2023-02-25T07:11:19.652Z,98835.07
2023-02-25T07:13:50.000Z,98826.65
2023-02-25T07:16:19.026Z,98823.27
2023-02-25T07:18:48.235Z,98813.23
2023-02-25T07:21:18.086Z,98800.48
2023-02-25T07:23:46.718Z,98784.11
2023-02-25T07:26:16.080Z,98782.83
2023-02-25T07:28:44.553Z,98788.08
2023-02-25T07:31:19.421Z,98788.08
2023-02-25T07:33:48.421Z,98785.19
2023-02-25T07:36:17.250Z,98778.26
2023-02-25T07:38:47.053Z,98776.95
2023-02-25T07:41:20.835Z,98769.98
2023-02-25T07:43:49.285Z,98767.50
2023-02-25T07:46:17.682Z,98753.13
2023-02-25T07:48:46.086Z,98746.36
2023-02-25T07:51:21.998Z,98741.06
2023-02-25T07:53:52.912Z,98733.23
2023-02-25T07:56:24.269Z,98718.27
2023-02-25T07:58:52.767Z,98712.42
2023-02-25T08:01:27.141Z,98704.73
2023-02-25T08:03:59.498Z,98699.15
2023-02-25T08:06:28.213Z,98701.37
2023-02-25T08:08:56.939Z,98709.84
2023-02-25T08:11:27.591Z,98711.02
2023-02-25T08:13:56.062Z,98709.02
2023-02-25T08:16:24.459Z,98708.23
2023-02-25T08:18:53.184Z,98698.79
2023-02-25T08:21:24.063Z,98683.09
2023-02-25T08:23:53.602Z,98681.58
2023-02-25T08:26:23.685Z,98678.98
2023-02-25T08:28:52.123Z,98680.45
2023-02-25T08:31:21.315Z,98687.71
2023-02-25T08:33:52.923Z,98688.45
2023-02-25T08:36:25.420Z,98689.81
2023-02-25T08:38:57.292Z,98688.56
2023-02-25T08:41:27.896Z,98680.91
2023-02-25T08:43:58.693Z,98674.72
2023-02-25T08:46:30.718Z,98669.55
2023-02-25T08:48:59.228Z,98665.05
2023-02-25T08:51:34.500Z,98668.02
2023-02-25T08:54:09.518Z,98661.08
2023-02-25T08:56:40.484Z,98656.18
2023-02-25T08:59:12.032Z,98652.12
2023-02-25T09:01:50.528Z,98648.40
2023-02-25T09:04:24.071Z,98647.13
2023-02-25T09:06:54.338Z,98646.89
2023-02-25T09:09:22.816Z,98641.85
2023-02-25T09:11:52.017Z,98638.00
2023-02-25T09:14:21.927Z,98636.92
2023-02-25T09:16:51.180Z,98636.35
2023-02-25T09:19:19.519Z,98633.21
2023-02-25T09:21:48.676Z,98628.05
2023-02-25T09:24:17.812Z,98627.31
2023-02-25T09:26:47.356Z,98625.46
2023-02-25T09:29:16.213Z,98623.08
2023-02-25T09:31:44.709Z,98613.00
2023-02-25T09:34:15.433Z,98613.85
2023-02-25T09:36:43.968Z,98612.04
2023-02-25T09:39:13.742Z,98604.69
2023-02-25T09:42:03.516Z,98595.67
2023-02-25T09:44:38.976Z,98589.75
2023-02-25T09:47:26.628Z,98597.69
2023-02-25T09:50:05.638Z,98597.36
2023-02-25T09:52:43.201Z,98590.92
2023-02-25T09:55:29.284Z,98583.48
2023-02-25T09:58:27.363Z,98578.28
2023-02-25T10:01:11.813Z,98572.42
2023-02-25T10:04:30.503Z,98571.15
2023-02-25T10:07:07.760Z,98563.67
2023-02-25T10:09:54.081Z,98558.62
2023-02-25T10:13:01.738Z,98548.59
2023-02-25T10:16:43.161Z,98545.23
2023-02-25T10:19:36.195Z,98539.40
2023-02-25T10:22:44.120Z,98527.98
2023-02-25T10:25:22.650Z,98510.83
2023-02-25T10:28:00.903Z,98507.58
2023-02-25T10:30:42.769Z,98498.70
2023-02-25T10:33:24.678Z,98493.48
2023-02-25T10:36:30.196Z,98493.27
2023-02-25T10:38:58.588Z,98487.40
2023-02-25T10:41:27.817Z,98479.09
2023-02-25T10:43:56.942Z,98479.40
2023-02-25T10:46:47.282Z,98472.25
2023-02-25T10:49:23.232Z,98464.77
2023-02-25T10:52:15.174Z,98459.70
2023-02-25T10:54:49.849Z,98461.04
2023-02-25T10:57:40.447Z,98448.04
2023-02-25T11:00:29.586Z,98445.09
2023-02-25T11:03:01.424Z,98444.55
2023-02-25T11:05:42.798Z,98429.91
2023-02-25T11:08:31.638Z,98426.84
2023-02-25T11:11:05.245Z,98420.41
2023-02-25T11:13:37.452Z,98421.29
2023-02-25T11:16:14.684Z,98413.85
2023-02-25T11:18:43.076Z,98407.58
2023-02-25T11:21:14.539Z,98407.73
2023-02-25T11:23:43.397Z,98400.29
2023-02-25T11:26:30.413Z,98399.38
2023-02-25T11:29:05.283Z,98394.23
2023-02-25T11:31:41.135Z,98394.83
2023-02-25T11:34:30.891Z,98396.02
2023-02-25T11:37:43.283Z,98399.47
2023-02-25T11:40:25.086Z,98387.05
2023-02-25T11:43:05.776Z,98397.11
2023-02-25T11:45:38.618Z,98393.01
2023-02-25T11:48:36.707Z,98381.60
2023-02-25T11:51:41.064Z,98367.09
2023-02-25T11:54:36.443Z,98365.58
2023-02-25T11:57:20.304Z,98357.80
2023-02-25T12:00:27.476Z,98350.52
2023-02-25T12:03:45.235Z,98352.34
2023-02-25T12:07:16.598Z,98355.74
2023-02-25T12:10:17.226Z,98355.97
2023-02-25T12:13:16.613Z,98340.52
2023-02-25T12:16:16.519Z,98337.42
2023-02-25T12:19:23.890Z,98332.02
2023-02-25T12:22:13.068Z,98320.72
2023-02-25T12:25:10.572Z,98318.80
2023-02-25T12:28:04.829Z,98312.77
2023-02-25T12:31:16.171Z,98308.27
2023-02-25T12:33:57.626Z,98304.64
2023-02-25T12:36:50.411Z,98299.90
2023-02-25T12:39:24.352Z,98296.70
2023-02-25T12:42:09.163Z,98304.39
2023-02-25T12:45:02.831Z,98299.48
2023-02-25T12:47:57.747Z,98300.41
2023-02-25T12:50:57.589Z,98310.58
2023-02-25T12:54:16.249Z,98311.83
2023-02-25T12:57:17.972Z,98315.30
2023-02-25T13:00:24.206Z,98305.77
2023-02-25T13:03:15.619Z,98301.97
2023-02-25T13:06:01.821Z,98310.94
2023-02-25T13:09:17.853Z,98319.77
2023-02-25T13:12:11.370Z,98325.91
2023-02-25T13:15:23.536Z,98336.89
2023-02-25T13:18:14.691Z,98341.74
2023-02-25T13:21:07.934Z,98341.86
2023-02-25T13:24:01.318Z,98339.23
2023-02-25T13:27:09.274Z,98342.40
2023-02-25T13:30:12.249Z,98347.41
2023-02-25T13:33:14.221Z,98350.02
2023-02-25T13:36:00.830Z,98350.32
2023-02-25T13:38:54.248Z,98357.85
2023-02-25T13:42:00.142Z,98365.23
2023-02-25T13:44:41.153Z,98363.20
2023-02-25T13:47:34.512Z,98361.41
2023-02-25T13:50:33.292Z,98366.35
2023-02-25T13:53:10.269Z,98356.74
2023-02-25T13:56:34.167Z,98357.60
2023-02-25T14:00:04.785Z,98348.34
2023-02-25T14:03:05.095Z,98358.52
2023-02-25T14:06:10.926Z,98363.13
2023-02-25T14:08:53.924Z,98361.59
2023-02-25T14:11:57.790Z,98374.26
2023-02-25T14:14:40.852Z,98383.59
2023-02-25T14:17:51.697Z,98382.10
2023-02-25T14:20:52.065Z,98389.23
2023-02-25T14:23:33.502Z,98397.08
2023-02-25T14:26:13.753Z,98413.08
2023-02-25T14:29:38.015Z,98426.91
2023-02-25T14:32:36.613Z,98443.02
2023-02-25T14:35:29.160Z,98452.41
2023-02-25T14:38:10.116Z,98454.34
2023-02-25T14:41:02.167Z,98448.70
2023-02-25T14:43:37.644Z,98443.29
2023-02-25T14:46:40.697Z,98436.95
2023-02-25T14:49:27.664Z,98441.70
2023-02-25T14:52:31.489Z,98441.71
2023-02-25T14:55:25.706Z,98445.40
2023-02-25T14:57:56.780Z,98456.73
2023-02-25T15:01:07.536Z,98468.19
2023-02-25T15:03:58.108Z,98481.86
2023-02-25T15:06:50.480Z,98483.67
2023-02-25T15:10:05.753Z,98478.19
2023-02-25T15:13:15.018Z,98470.58
2023-02-25T15:16:08.164Z,98481.70
2023-02-25T15:19:12.237Z,98486.67
2023-02-25T15:21:46.692Z,98487.14
2023-02-25T15:24:33.846Z,98495.70
2023-02-25T15:27:02.752Z,98503.98
2023-02-25T15:29:33.843Z,98525.41
2023-02-25T15:32:11.973Z,98541.86
2023-02-25T15:35:15.777Z,98561.88
2023-02-25T15:37:56.087Z,98592.17
2023-02-25T15:40:33.189Z,98603.11
2023-02-25T15:43:24.040Z,98606.83
2023-02-25T15:46:23.935Z,98592.45
2023-02-25T15:49:13.852Z,98597.20
2023-02-25T15:51:52.021Z,98607.16
2023-02-25T15:54:32.242Z,98609.05
2023-02-25T15:57:24.667Z,98607.19
2023-02-25T15:59:58.212Z,98608.30
2023-02-25T16:02:29.202Z,98611.99
2023-02-25T16:05:24.957Z,98616.00
2023-02-25T16:08:20.762Z,98625.71
2023-02-25T16:10:53.060Z,98631.88
2023-02-25T16:13:33.514Z,98645.02
2023-02-25T16:16:04.285Z,98652.27
2023-02-25T16:18:40.388Z,98660.59
2023-02-25T16:21:21.879Z,98674.60
2023-02-25T16:23:51.150Z,98676.15
2023-02-25T16:26:44.518Z,98666.08
2023-02-25T16:29:57.299Z,98660.44
2023-02-25T16:32:40.489Z,98654.42
2023-02-25T16:35:39.195Z,98646.05
2023-02-25T16:38:46.639Z,98654.34
2023-02-25T16:41:15.465Z,98682.03
2023-02-25T16:43:45.893Z,98698.27
2023-02-25T16:46:33.371Z,98706.60
2023-02-25T16:49:07.882Z,98715.87
2023-02-25T16:51:43.422Z,98719.33
2023-02-25T16:54:30.294Z,98733.64
2023-02-25T16:57:02.401Z,98757.09
2023-02-25T16:59:33.349Z,98767.05
2023-02-25T17:02:25.676Z,98775.90
2023-02-25T17:04:56.222Z,98766.73
2023-02-25T17:07:31.759Z,98775.04
2023-02-25T17:10:04.591Z,98776.00
2023-02-25T17:12:38.820Z,98786.41
2023-02-25T17:15:28.733Z,98792.00
2023-02-25T17:18:31.166Z,98787.23
2023-02-25T17:21:06.793Z,98776.30
2023-02-25T17:23:41.549Z,98779.79
2023-02-25T17:26:15.946Z,98765.93
2023-02-25T17:28:47.601Z,98756.80
2023-02-25T17:31:19.964Z,98757.69
2023-02-25T17:33:56.921Z,98766.52
2023-02-25T17:36:29.801Z,98766.90
2023-02-25T17:39:29.741Z,98752.29
2023-02-25T17:41:58.143Z,98755.91
2023-02-25T17:44:44.611Z,98757.41
2023-02-25T17:47:21.134Z,98805.85
2023-02-25T17:49:50.327Z,98842.08
2023-02-25T17:52:26.015Z,98843.19
2023-02-25T17:55:23.218Z,98847.98
2023-02-25T17:57:56.216Z,98838.87
2023-02-25T18:00:31.133Z,98835.65
2023-02-25T18:03:21.142Z,98847.05
2023-02-25T18:05:59.313Z,98857.27
2023-02-25T18:08:30.788Z,98864.36
2023-02-25T18:11:37.862Z,98884.17
2023-02-25T18:14:24.195Z,98898.95
2023-02-25T18:16:53.604Z,98919.38
2023-02-25T18:19:44.408Z,98917.52
2023-02-25T18:22:37.942Z,98918.41
2023-02-25T18:25:29.328Z,98928.71
2023-02-25T18:27:58.036Z,98927.98
2023-02-25T18:30:29.810Z,98933.66
2023-02-25T18:32:59.980Z,98934.14
2023-02-25T18:35:32.066Z,98930.19
2023-02-25T18:38:01.075Z,98939.13
2023-02-25T18:40:40.372Z,98949.88
2023-02-25T18:43:19.122Z,98951.64
2023-02-25T18:45:47.523Z,98953.95
2023-02-25T18:48:15.907Z,98957.91
2023-02-25T18:50:44.782Z,98961.66
2023-02-25T18:53:25.035Z,98954.71
2023-02-25T18:55:56.341Z,98961.03
2023-02-25T18:58:25.966Z,98959.56
2023-02-25T19:00:58.204Z,98962.73
2023-02-25T19:03:32.002Z,98971.27
2023-02-25T19:06:00.656Z,98973.22
2023-02-25T19:08:29.027Z,98978.95
2023-02-25T19:10:57.454Z,98985.17
2023-02-25T19:13:42.857Z,98998.92
2023-02-25T19:16:11.258Z,99006.95
2023-02-25T19:18:41.600Z,98994.86
2023-02-25T19:21:18.951Z,98994.27
2023-02-25T19:23:51.647Z,98994.39
2023-02-25T19:26:21.010Z,98993.89
2023-02-25T19:28:49.364Z,98996.56
2023-02-25T19:31:18.790Z,99010.55
2023-02-25T19:33:47.244Z,99007.10
2023-02-25T19:36:15.598Z,99004.14
2023-02-25T19:38:43.970Z,99003.77
2023-02-25T19:41:14.448Z,99018.95
2023-02-25T19:43:42.751Z,99031.98
2023-02-25T19:46:11.311Z,99042.12
2023-02-25T19:48:39.707Z,99053.86
2023-02-25T19:51:09.917Z,99063.29
2023-02-25T19:53:38.719Z,99066.86
2023-02-25T19:56:08.170Z,99066.55
2023-02-25T19:58:36.566Z,99069.59
2023-02-25T20:01:07.456Z,99077.58
2023-02-25T20:03:36.748Z,99053.90
2023-02-25T20:06:13.239Z,99047.73
2023-02-25T20:08:42.115Z,99043.30
2023-02-25T20:11:12.104Z,99050.46
2023-02-25T20:13:40.410Z,99064.51
2023-02-25T20:16:09.539Z,99076.63
2023-02-25T20:18:38.562Z,99091.95
2023-02-25T20:21:07.253Z,99088.09
2023-02-25T20:23:35.697Z,99089.51
2023-02-25T20:26:11.124Z,99079.86
2023-02-25T20:28:40.592Z,99074.27
2023-02-25T20:31:13.054Z,99080.29
2023-02-25T20:33:42.320Z,99084.91
2023-02-25T20:36:59.064Z,99092.67
2023-02-25T20:39:39.498Z,99114.19
2023-02-25T20:42:21.933Z,99129.06
2023-02-25T20:44:52.544Z,99125.33
2023-02-25T20:47:30.481Z,99125.04
2023-02-25T20:49:59.198Z,99131.04
2023-02-25T20:52:27.982Z,99133.42
2023-02-25T20:54:56.582Z,99138.56
2023-02-25T20:57:27.135Z,99139.30
2023-02-25T20:59:55.700Z,99141.42
2023-02-25T21:02:24.102Z,99145.45
2023-02-25T21:04:52.573Z,99141.95
2023-02-25T21:07:20.960Z,99135.18
2023-02-25T21:09:49.347Z,99127.09
2023-02-25T21:12:17.807Z,99119.08
2023-02-25T21:14:46.103Z,99112.94
2023-02-25T21:17:14.518Z,99098.12
2023-02-25T21:19:43.121Z,99103.98
2023-02-25T21:22:11.450Z,99110.55
2023-02-25T21:24:39.898Z,99117.56
2023-02-25T21:27:08.280Z,99105.11
2023-02-25T21:29:36.596Z,99093.38
2023-02-25T21:32:05.623Z,99091.86
2023-02-25T21:34:33.933Z,99089.85
2023-02-25T21:37:02.273Z,99082.77
2023-02-25T21:39:30.617Z,99081.38
2023-02-25T21:41:58.996Z,99082.83
2023-02-25T21:44:27.438Z,99091.43
2023-02-25T21:46:58.249Z,99090.55
2023-02-25T21:49:30.338Z,99088.77
2023-02-25T21:51:59.856Z,99088.50
2023-02-25T21:54:28.480Z,99083.63
2023-02-25T21:56:56.828Z,99074.75
2023-02-25T21:59:26.269Z,99069.64
2023-02-25T22:01:54.761Z,99064.39
2023-02-25T22:04:23.195Z,99070.90
2023-02-25T22:06:51.663Z,99068.48
2023-02-25T22:09:20.188Z,99076.02
2023-02-25T22:11:48.552Z,99081.75
2023-02-25T22:14:17.418Z,99071.58
2023-02-25T22:16:45.792Z,99059.93
2023-02-25T22:19:14.109Z,99054.54
2023-02-25T22:21:42.453Z,99063.11
2023-02-25T22:24:10.853Z,99072.20
2023-02-25T22:26:39.274Z,99079.09
2023-02-25T22:29:09.742Z,99088.92
2023-02-25T22:31:38.474Z,99099.08
2023-02-25T22:34:08.326Z,99103.77
2023-02-25T22:36:36.642Z,99107.60
2023-02-25T22:39:07.258Z,99122.91
2023-02-25T22:41:37.117Z,99127.50
2023-02-25T22:44:06.141Z,99133.80
2023-02-25T22:46:38.409Z,99148.38
2023-02-25T22:49:08.568Z,99154.86
2023-02-25T22:51:42.995Z,99141.22
2023-02-25T22:54:14.179Z,99135.48
2023-02-25T22:56:44.409Z,99127.67
2023-02-25T22:59:14.577Z,99119.73
2023-02-25T23:01:43.084Z,99115.43
2023-02-25T23:04:11.483Z,99111.53
2023-02-25T23:06:44.697Z,99123.25
2023-02-25T23:09:14.942Z,99134.41
2023-02-25T23:11:45.262Z,99144.56
2023-02-25T23:14:14.496Z,99150.16
2023-02-25T23:16:46.570Z,99143.69
2023-02-25T23:19:18.465Z,99138.98
2023-02-25T23:21:47.037Z,99137.71
2023-02-25T23:24:19.078Z,99142.31
2023-02-25T23:26:50.803Z,99141.67
2023-02-25T23:29:19.662Z,99135.64
2023-02-25T23:31:49.909Z,99138.49
2023-02-25T23:34:23.792Z,99145.88
2023-02-25T23:36:57.237Z,99147.08
2023-02-25T23:39:26.258Z,99165.48
2023-02-25T23:41:54.754Z,99187.08
2023-02-25T23:44:23.465Z,99199.06
2023-02-25T23:46:52.416Z,99216.11
2023-02-25T23:49:20.804Z,99223.09
2023-02-25T23:51:49.402Z,99225.77
2023-02-25T23:54:21.082Z,99227.64
2023-02-25T23:56:50.775Z,99226.65
2023-02-25T23:59:23.092Z,99222.27
